sensor_id;sensor_type;location;lat;lon;timestamp;P1;durP1;ratioP1;P2;durP2;ratioP2
11761;SDS011;5938;47.098;15.474;2023-05-23T00:02:33;14.03;;;12.57;;
11761;SDS011;5938;47.098;15.474;2023-05-23T00:06:38;13.27;;;11.80;;
11761;SDS011;5938;47.098;15.474;2023-05-23T00:10:46;13.27;;;11.97;;
11761;SDS011;5938;47.098;15.474;2023-05-23T00:14:49;15.00;;;11.50;;
11761;SDS011;5938;47.098;15.474;2023-05-23T00:18:54;13.37;;;12.07;;
11761;SDS011;5938;47.098;15.474;2023-05-23T00:22:59;14.00;;;12.57;;
11761;SDS011;5938;47.098;15.474;2023-05-23T00:27:05;12.87;;;11.60;;
11761;SDS011;5938;47.098;15.474;2023-05-23T00:31:08;13.53;;;12.10;;
11761;SDS011;5938;47.098;15.474;2023-05-23T00:35:12;12.83;;;11.53;;
11761;SDS011;5938;47.098;15.474;2023-05-23T00:39:16;11.70;;;10.53;;
11761;SDS011;5938;47.098;15.474;2023-05-23T00:43:23;14.53;;;11.70;;
11761;SDS011;5938;47.098;15.474;2023-05-23T00:47:26;18.10;;;11.80;;
11761;SDS011;5938;47.098;15.474;2023-05-23T00:51:30;14.50;;;11.37;;
11761;SDS011;5938;47.098;15.474;2023-05-23T00:55:34;13.60;;;11.90;;
11761;SDS011;5938;47.098;15.474;2023-05-23T00:59:42;14.10;;;12.20;;
11761;SDS011;5938;47.098;15.474;2023-05-23T01:03:47;12.73;;;11.53;;
11761;SDS011;5938;47.098;15.474;2023-05-23T01:07:52;13.10;;;11.80;;
11761;SDS011;5938;47.098;15.474;2023-05-23T01:11:58;13.83;;;12.50;;
11761;SDS011;5938;47.098;15.474;2023-05-23T01:16:12;15.57;;;12.90;;
11761;SDS011;5938;47.098;15.474;2023-05-23T01:20:20;13.60;;;12.17;;
11761;SDS011;5938;47.098;15.474;2023-05-23T01:24:34;13.60;;;12.23;;
11761;SDS011;5938;47.098;15.474;2023-05-23T01:28:46;14.50;;;12.30;;
11761;SDS011;5938;47.098;15.474;2023-05-23T01:32:53;14.83;;;12.90;;
11761;SDS011;5938;47.098;15.474;2023-05-23T01:37:00;14.20;;;12.80;;
11761;SDS011;5938;47.098;15.474;2023-05-23T01:41:10;13.90;;;12.50;;
11761;SDS011;5938;47.098;15.474;2023-05-23T01:45:15;16.00;;;13.20;;
11761;SDS011;5938;47.098;15.474;2023-05-23T01:49:20;14.43;;;12.07;;
11761;SDS011;5938;47.098;15.474;2023-05-23T01:53:25;13.90;;;12.20;;
11761;SDS011;5938;47.098;15.474;2023-05-23T01:57:30;13.07;;;11.87;;
11761;SDS011;5938;47.098;15.474;2023-05-23T02:01:37;14.07;;;12.57;;
11761;SDS011;5938;47.098;15.474;2023-05-23T02:05:42;14.50;;;12.53;;
11761;SDS011;5938;47.098;15.474;2023-05-23T02:09:45;14.57;;;13.13;;
11761;SDS011;5938;47.098;15.474;2023-05-23T02:13:48;13.83;;;12.40;;
11761;SDS011;5938;47.098;15.474;2023-05-23T02:17:53;14.80;;;13.20;;
11761;SDS011;5938;47.098;15.474;2023-05-23T02:21:56;13.63;;;12.10;;
11761;SDS011;5938;47.098;15.474;2023-05-23T02:26:00;13.50;;;12.20;;
11761;SDS011;5938;47.098;15.474;2023-05-23T02:30:04;14.00;;;12.57;;
11761;SDS011;5938;47.098;15.474;2023-05-23T02:34:10;13.70;;;12.40;;
11761;SDS011;5938;47.098;15.474;2023-05-23T02:38:14;14.27;;;12.70;;
11761;SDS011;5938;47.098;15.474;2023-05-23T02:42:18;14.87;;;12.97;;
11761;SDS011;5938;47.098;15.474;2023-05-23T02:46:21;14.83;;;13.00;;
11761;SDS011;5938;47.098;15.474;2023-05-23T02:50:26;14.00;;;12.60;;
11761;SDS011;5938;47.098;15.474;2023-05-23T02:54:30;13.93;;;12.30;;
11761;SDS011;5938;47.098;15.474;2023-05-23T02:58:33;14.90;;;13.37;;
11761;SDS011;5938;47.098;15.474;2023-05-23T03:02:37;14.73;;;13.13;;
11761;SDS011;5938;47.098;15.474;2023-05-23T03:06:43;16.70;;;12.57;;
11761;SDS011;5938;47.098;15.474;2023-05-23T03:10:47;19.33;;;13.67;;
11761;SDS011;5938;47.098;15.474;2023-05-23T03:14:51;14.60;;;13.10;;
11761;SDS011;5938;47.098;15.474;2023-05-23T03:18:54;16.73;;;12.17;;
11761;SDS011;5938;47.098;15.474;2023-05-23T03:22:59;12.40;;;11.10;;
11761;SDS011;5938;47.098;15.474;2023-05-23T03:27:03;12.73;;;11.43;;
11761;SDS011;5938;47.098;15.474;2023-05-23T03:31:07;15.93;;;13.07;;
11761;SDS011;5938;47.098;15.474;2023-05-23T03:35:11;14.57;;;13.03;;
11761;SDS011;5938;47.098;15.474;2023-05-23T03:39:16;16.00;;;13.20;;
11761;SDS011;5938;47.098;15.474;2023-05-23T03:43:19;15.30;;;12.73;;
11761;SDS011;5938;47.098;15.474;2023-05-23T03:47:23;14.87;;;12.77;;
11761;SDS011;5938;47.098;15.474;2023-05-23T03:51:26;14.60;;;13.10;;
11761;SDS011;5938;47.098;15.474;2023-05-23T03:55:31;15.13;;;13.53;;
11761;SDS011;5938;47.098;15.474;2023-05-23T03:59:35;14.20;;;12.80;;
11761;SDS011;5938;47.098;15.474;2023-05-23T04:03:38;15.90;;;14.07;;
11761;SDS011;5938;47.098;15.474;2023-05-23T04:07:43;18.33;;;13.70;;
11761;SDS011;5938;47.098;15.474;2023-05-23T04:11:48;15.47;;;13.83;;
11761;SDS011;5938;47.098;15.474;2023-05-23T04:15:52;15.37;;;13.87;;
11761;SDS011;5938;47.098;15.474;2023-05-23T04:19:57;22.90;;;15.60;;
11761;SDS011;5938;47.098;15.474;2023-05-23T04:24:01;17.73;;;15.67;;
11761;SDS011;5938;47.098;15.474;2023-05-23T04:28:07;17.17;;;15.37;;
11761;SDS011;5938;47.098;15.474;2023-05-23T04:32:11;15.00;;;13.50;;
11761;SDS011;5938;47.098;15.474;2023-05-23T04:36:17;15.77;;;14.10;;
11761;SDS011;5938;47.098;15.474;2023-05-23T04:40:20;16.70;;;15.00;;
11761;SDS011;5938;47.098;15.474;2023-05-23T04:44:25;16.33;;;14.03;;
11761;SDS011;5938;47.098;15.474;2023-05-23T04:48:33;21.27;;;17.27;;
11761;SDS011;5938;47.098;15.474;2023-05-23T04:52:36;15.60;;;14.10;;
11761;SDS011;5938;47.098;15.474;2023-05-23T04:56:42;17.43;;;14.40;;
11761;SDS011;5938;47.098;15.474;2023-05-23T05:00:46;16.43;;;14.30;;
11761;SDS011;5938;47.098;15.474;2023-05-23T05:04:49;16.53;;;14.83;;
11761;SDS011;5938;47.098;15.474;2023-05-23T05:08:53;14.77;;;13.27;;
11761;SDS011;5938;47.098;15.474;2023-05-23T05:12:56;15.23;;;13.10;;
11761;SDS011;5938;47.098;15.474;2023-05-23T05:17:01;16.30;;;14.40;;
11761;SDS011;5938;47.098;15.474;2023-05-23T05:21:06;15.33;;;13.50;;
11761;SDS011;5938;47.098;15.474;2023-05-23T05:25:09;18.80;;;14.97;;
11761;SDS011;5938;47.098;15.474;2023-05-23T05:29:12;18.47;;;14.93;;
11761;SDS011;5938;47.098;15.474;2023-05-23T05:33:17;16.13;;;13.70;;
11761;SDS011;5938;47.098;15.474;2023-05-23T05:37:21;17.13;;;14.17;;
11761;SDS011;5938;47.098;15.474;2023-05-23T05:41:24;16.10;;;14.43;;
11761;SDS011;5938;47.098;15.474;2023-05-23T05:45:28;14.70;;;13.33;;
11761;SDS011;5938;47.098;15.474;2023-05-23T05:49:32;14.23;;;12.90;;
11761;SDS011;5938;47.098;15.474;2023-05-23T05:53:36;15.40;;;13.80;;
11761;SDS011;5938;47.098;15.474;2023-05-23T05:57:39;15.07;;;12.90;;
11761;SDS011;5938;47.098;15.474;2023-05-23T06:01:43;16.23;;;12.80;;
11761;SDS011;5938;47.098;15.474;2023-05-23T06:05:48;15.13;;;12.23;;
11761;SDS011;5938;47.098;15.474;2023-05-23T06:09:51;13.43;;;12.00;;
11761;SDS011;5938;47.098;15.474;2023-05-23T06:13:54;13.50;;;11.30;;
11761;SDS011;5938;47.098;15.474;2023-05-23T06:17:59;16.10;;;12.23;;
11761;SDS011;5938;47.098;15.474;2023-05-23T06:22:04;13.03;;;10.47;;
11761;SDS011;5938;47.098;15.474;2023-05-23T06:26:07;11.67;;;10.23;;
11761;SDS011;5938;47.098;15.474;2023-05-23T06:30:11;11.57;;;10.53;;
11761;SDS011;5938;47.098;15.474;2023-05-23T06:34:16;14.20;;;9.60;;
11761;SDS011;5938;47.098;15.474;2023-05-23T06:38:22;13.00;;;10.40;;
11761;SDS011;5938;47.098;15.474;2023-05-23T06:42:28;11.77;;;10.13;;
11761;SDS011;5938;47.098;15.474;2023-05-23T06:46:31;11.23;;;10.13;;
11761;SDS011;5938;47.098;15.474;2023-05-23T06:50:35;12.60;;;9.40;;
11761;SDS011;5938;47.098;15.474;2023-05-23T06:54:40;10.37;;;9.33;;
11761;SDS011;5938;47.098;15.474;2023-05-23T06:58:43;10.80;;;9.17;;
11761;SDS011;5938;47.098;15.474;2023-05-23T07:02:47;10.47;;;9.43;;
11761;SDS011;5938;47.098;15.474;2023-05-23T07:06:52;9.87;;;8.87;;
11761;SDS011;5938;47.098;15.474;2023-05-23T07:10:56;11.77;;;9.23;;
11761;SDS011;5938;47.098;15.474;2023-05-23T07:15:00;10.83;;;9.80;;
11761;SDS011;5938;47.098;15.474;2023-05-23T07:19:04;10.80;;;9.40;;
11761;SDS011;5938;47.098;15.474;2023-05-23T07:23:07;10.50;;;9.47;;
11761;SDS011;5938;47.098;15.474;2023-05-23T07:27:12;9.53;;;8.53;;
11761;SDS011;5938;47.098;15.474;2023-05-23T07:31:15;11.10;;;8.80;;
11761;SDS011;5938;47.098;15.474;2023-05-23T07:35:19;9.07;;;8.10;;
11761;SDS011;5938;47.098;15.474;2023-05-23T07:39:26;9.97;;;9.07;;
11761;SDS011;5938;47.098;15.474;2023-05-23T07:43:31;11.67;;;8.77;;
11761;SDS011;5938;47.098;15.474;2023-05-23T07:47:34;9.30;;;7.93;;
11761;SDS011;5938;47.098;15.474;2023-05-23T07:51:38;8.90;;;7.30;;
11761;SDS011;5938;47.098;15.474;2023-05-23T07:55:43;10.30;;;8.13;;
11761;SDS011;5938;47.098;15.474;2023-05-23T07:59:48;10.47;;;9.40;;
11761;SDS011;5938;47.098;15.474;2023-05-23T08:03:51;8.73;;;7.83;;
11761;SDS011;5938;47.098;15.474;2023-05-23T08:07:54;9.17;;;8.27;;
11761;SDS011;5938;47.098;15.474;2023-05-23T08:11:59;8.80;;;7.90;;
11761;SDS011;5938;47.098;15.474;2023-05-23T08:16:04;9.20;;;8.10;;
11761;SDS011;5938;47.098;15.474;2023-05-23T08:20:08;9.20;;;7.70;;
11761;SDS011;5938;47.098;15.474;2023-05-23T08:24:13;9.07;;;8.17;;
11761;SDS011;5938;47.098;15.474;2023-05-23T08:28:16;9.43;;;8.53;;
11761;SDS011;5938;47.098;15.474;2023-05-23T08:32:21;11.70;;;9.40;;
11761;SDS011;5938;47.098;15.474;2023-05-23T08:36:24;10.27;;;8.73;;
11761;SDS011;5938;47.098;15.474;2023-05-23T08:40:27;8.83;;;7.93;;
11761;SDS011;5938;47.098;15.474;2023-05-23T08:44:33;8.50;;;7.63;;
11761;SDS011;5938;47.098;15.474;2023-05-23T08:48:38;7.67;;;7.07;;
11761;SDS011;5938;47.098;15.474;2023-05-23T08:52:47;9.73;;;8.67;;
11761;SDS011;5938;47.098;15.474;2023-05-23T08:56:55;8.30;;;7.57;;
11761;SDS011;5938;47.098;15.474;2023-05-23T09:00:59;9.40;;;8.37;;
11761;SDS011;5938;47.098;15.474;2023-05-23T09:05:03;10.63;;;9.13;;
11761;SDS011;5938;47.098;15.474;2023-05-23T09:09:09;11.00;;;8.33;;
11761;SDS011;5938;47.098;15.474;2023-05-23T09:13:12;10.40;;;8.77;;
11761;SDS011;5938;47.098;15.474;2023-05-23T09:17:17;8.30;;;7.60;;
11761;SDS011;5938;47.098;15.474;2023-05-23T09:21:22;10.13;;;9.10;;
11761;SDS011;5938;47.098;15.474;2023-05-23T09:25:26;10.10;;;9.20;;
11761;SDS011;5938;47.098;15.474;2023-05-23T09:29:30;9.70;;;8.80;;
11761;SDS011;5938;47.098;15.474;2023-05-23T09:33:35;9.33;;;8.43;;
11761;SDS011;5938;47.098;15.474;2023-05-23T09:37:42;8.90;;;8.07;;
11761;SDS011;5938;47.098;15.474;2023-05-23T09:41:47;10.80;;;9.30;;
11761;SDS011;5938;47.098;15.474;2023-05-23T09:45:52;9.23;;;8.33;;
11761;SDS011;5938;47.098;15.474;2023-05-23T09:49:56;8.83;;;8.10;;
11761;SDS011;5938;47.098;15.474;2023-05-23T09:54:01;9.40;;;8.60;;
11761;SDS011;5938;47.098;15.474;2023-05-23T09:58:05;8.63;;;7.93;;
11761;SDS011;5938;47.098;15.474;2023-05-23T10:02:10;12.10;;;9.77;;
11761;SDS011;5938;47.098;15.474;2023-05-23T10:06:15;9.60;;;8.77;;
11761;SDS011;5938;47.098;15.474;2023-05-23T10:10:24;10.07;;;9.10;;
11761;SDS011;5938;47.098;15.474;2023-05-23T10:14:29;9.40;;;8.60;;
11761;SDS011;5938;47.098;15.474;2023-05-23T10:18:37;9.60;;;8.70;;
11761;SDS011;5938;47.098;15.474;2023-05-23T10:22:45;12.73;;;8.80;;
11761;SDS011;5938;47.098;15.474;2023-05-23T10:26:51;10.47;;;9.40;;
11761;SDS011;5938;47.098;15.474;2023-05-23T10:30:55;9.47;;;8.67;;
11761;SDS011;5938;47.098;15.474;2023-05-23T10:35:00;9.60;;;8.80;;
11761;SDS011;5938;47.098;15.474;2023-05-23T10:39:12;10.33;;;9.37;;
11761;SDS011;5938;47.098;15.474;2023-05-23T10:43:24;10.70;;;9.70;;
11761;SDS011;5938;47.098;15.474;2023-05-23T10:47:34;10.60;;;9.50;;
11761;SDS011;5938;47.098;15.474;2023-05-23T10:51:37;11.70;;;9.30;;
11761;SDS011;5938;47.098;15.474;2023-05-23T10:55:41;10.10;;;8.40;;
11761;SDS011;5938;47.098;15.474;2023-05-23T10:59:52;9.80;;;8.73;;
11761;SDS011;5938;47.098;15.474;2023-05-23T11:03:55;9.30;;;8.60;;
11761;SDS011;5938;47.098;15.474;2023-05-23T11:08:07;11.50;;;8.50;;
11761;SDS011;5938;47.098;15.474;2023-05-23T11:12:13;9.20;;;8.50;;
11761;SDS011;5938;47.098;15.474;2023-05-23T11:16:29;10.87;;;9.90;;
11761;SDS011;5938;47.098;15.474;2023-05-23T11:20:35;8.83;;;8.03;;
11761;SDS011;5938;47.098;15.474;2023-05-23T11:24:49;9.33;;;8.70;;
11761;SDS011;5938;47.098;15.474;2023-05-23T11:28:56;9.43;;;8.43;;
11761;SDS011;5938;47.098;15.474;2023-05-23T11:33:05;11.13;;;10.13;;
11761;SDS011;5938;47.098;15.474;2023-05-23T11:37:09;9.20;;;8.30;;
11761;SDS011;5938;47.098;15.474;2023-05-23T11:41:13;16.43;;;9.10;;
11761;SDS011;5938;47.098;15.474;2023-05-23T11:45:18;12.70;;;9.33;;
11761;SDS011;5938;47.098;15.474;2023-05-23T11:49:23;12.63;;;9.73;;
11761;SDS011;5938;47.098;15.474;2023-05-23T11:53:26;10.80;;;9.23;;
11761;SDS011;5938;47.098;15.474;2023-05-23T11:57:30;11.60;;;10.33;;
11761;SDS011;5938;47.098;15.474;2023-05-23T12:01:35;10.63;;;9.60;;
11761;SDS011;5938;47.098;15.474;2023-05-23T12:05:43;13.73;;;10.60;;
11761;SDS011;5938;47.098;15.474;2023-05-23T12:09:47;16.50;;;12.67;;
11761;SDS011;5938;47.098;15.474;2023-05-23T12:13:51;13.90;;;11.20;;
11761;SDS011;5938;47.098;15.474;2023-05-23T12:17:55;13.10;;;10.80;;
11761;SDS011;5938;47.098;15.474;2023-05-23T12:22:04;18.10;;;12.83;;
11761;SDS011;5938;47.098;15.474;2023-05-23T12:26:07;18.67;;;13.27;;
11761;SDS011;5938;47.098;15.474;2023-05-23T12:30:12;15.53;;;14.00;;
11761;SDS011;5938;47.098;15.474;2023-05-23T12:34:18;14.37;;;12.63;;
11761;SDS011;5938;47.098;15.474;2023-05-23T12:38:24;18.80;;;14.27;;
11761;SDS011;5938;47.098;15.474;2023-05-23T12:42:35;13.20;;;11.90;;
11761;SDS011;5938;47.098;15.474;2023-05-23T12:46:47;15.17;;;11.57;;
11761;SDS011;5938;47.098;15.474;2023-05-23T12:50:50;26.83;;;19.17;;
11761;SDS011;5938;47.098;15.474;2023-05-23T12:54:55;13.67;;;10.70;;
11761;SDS011;5938;47.098;15.474;2023-05-23T12:58:58;17.63;;;12.37;;
11761;SDS011;5938;47.098;15.474;2023-05-23T13:03:03;18.20;;;15.60;;
11761;SDS011;5938;47.098;15.474;2023-05-23T13:07:07;20.87;;;12.90;;
11761;SDS011;5938;47.098;15.474;2023-05-23T13:11:12;21.57;;;18.50;;
11761;SDS011;5938;47.098;15.474;2023-05-23T13:15:15;16.60;;;13.60;;
11761;SDS011;5938;47.098;15.474;2023-05-23T13:19:19;21.17;;;17.50;;
11761;SDS011;5938;47.098;15.474;2023-05-23T13:23:23;19.33;;;14.50;;
11761;SDS011;5938;47.098;15.474;2023-05-23T13:27:29;17.27;;;14.33;;
11761;SDS011;5938;47.098;15.474;2023-05-23T13:31:32;16.60;;;14.23;;
11761;SDS011;5938;47.098;15.474;2023-05-23T13:35:36;20.40;;;15.83;;
11761;SDS011;5938;47.098;15.474;2023-05-23T13:39:39;14.50;;;13.10;;
11761;SDS011;5938;47.098;15.474;2023-05-23T13:43:45;13.63;;;12.33;;
11761;SDS011;5938;47.098;15.474;2023-05-23T13:47:48;19.57;;;13.97;;
11761;SDS011;5938;47.098;15.474;2023-05-23T13:51:52;16.70;;;12.40;;
11761;SDS011;5938;47.098;15.474;2023-05-23T13:55:55;14.57;;;13.07;;
11761;SDS011;5938;47.098;15.474;2023-05-23T14:00:00;14.73;;;13.23;;
11761;SDS011;5938;47.098;15.474;2023-05-23T14:04:06;13.23;;;11.97;;
11761;SDS011;5938;47.098;15.474;2023-05-23T14:08:09;16.87;;;13.70;;
11761;SDS011;5938;47.098;15.474;2023-05-23T14:12:14;14.67;;;13.17;;
11761;SDS011;5938;47.098;15.474;2023-05-23T14:16:19;12.93;;;11.63;;
11761;SDS011;5938;47.098;15.474;2023-05-23T14:20:22;14.20;;;12.20;;
11761;SDS011;5938;47.098;15.474;2023-05-23T14:24:26;14.17;;;12.77;;
11761;SDS011;5938;47.098;15.474;2023-05-23T14:28:30;14.00;;;12.40;;
11761;SDS011;5938;47.098;15.474;2023-05-23T14:32:34;14.80;;;13.30;;
11761;SDS011;5938;47.098;15.474;2023-05-23T14:36:39;11.80;;;10.60;;
11761;SDS011;5938;47.098;15.474;2023-05-23T14:40:43;11.33;;;10.23;;
11761;SDS011;5938;47.098;15.474;2023-05-23T14:44:48;15.63;;;12.33;;
11761;SDS011;5938;47.098;15.474;2023-05-23T14:48:53;11.17;;;10.27;;
11761;SDS011;5938;47.098;15.474;2023-05-23T14:52:56;11.70;;;10.50;;
11761;SDS011;5938;47.098;15.474;2023-05-23T14:57:01;11.53;;;10.50;;
11761;SDS011;5938;47.098;15.474;2023-05-23T15:01:05;10.70;;;9.70;;
11761;SDS011;5938;47.098;15.474;2023-05-23T15:05:10;10.37;;;9.37;;
11761;SDS011;5938;47.098;15.474;2023-05-23T15:09:14;10.83;;;9.43;;
11761;SDS011;5938;47.098;15.474;2023-05-23T15:13:18;11.90;;;8.73;;
11761;SDS011;5938;47.098;15.474;2023-05-23T15:17:21;11.73;;;10.63;;
11761;SDS011;5938;47.098;15.474;2023-05-23T15:21:28;11.00;;;9.90;;
11761;SDS011;5938;47.098;15.474;2023-05-23T15:25:32;10.63;;;9.20;;
11761;SDS011;5938;47.098;15.474;2023-05-23T15:29:49;12.17;;;10.93;;
11761;SDS011;5938;47.098;15.474;2023-05-23T15:33:53;12.13;;;11.00;;
11761;SDS011;5938;47.098;15.474;2023-05-23T15:37:58;12.37;;;11.27;;
11761;SDS011;5938;47.098;15.474;2023-05-23T15:42:01;11.17;;;10.20;;
11761;SDS011;5938;47.098;15.474;2023-05-23T15:46:06;12.10;;;10.90;;
11761;SDS011;5938;47.098;15.474;2023-05-23T15:55:28;13.97;;;12.67;;
11761;SDS011;5938;47.098;15.474;2023-05-23T15:59:34;11.90;;;10.47;;
11761;SDS011;5938;47.098;15.474;2023-05-23T16:03:39;12.60;;;10.07;;
11761;SDS011;5938;47.098;15.474;2023-05-23T16:07:42;10.67;;;9.57;;
11761;SDS011;5938;47.098;15.474;2023-05-23T16:11:52;11.37;;;10.30;;
11761;SDS011;5938;47.098;15.474;2023-05-23T16:15:55;12.73;;;11.57;;
11761;SDS011;5938;47.098;15.474;2023-05-23T16:19:59;12.53;;;11.23;;
11761;SDS011;5938;47.098;15.474;2023-05-23T16:24:04;13.77;;;12.37;;
11761;SDS011;5938;47.098;15.474;2023-05-23T16:28:15;14.30;;;12.77;;
11761;SDS011;5938;47.098;15.474;2023-05-23T16:32:19;14.33;;;12.60;;
11761;SDS011;5938;47.098;15.474;2023-05-23T16:36:23;13.50;;;11.77;;
11761;SDS011;5938;47.098;15.474;2023-05-23T16:40:27;13.70;;;12.30;;
11761;SDS011;5938;47.098;15.474;2023-05-23T16:44:32;12.60;;;11.30;;
11761;SDS011;5938;47.098;15.474;2023-05-23T16:48:35;13.70;;;12.40;;
11761;SDS011;5938;47.098;15.474;2023-05-23T16:52:39;12.97;;;11.73;;
11761;SDS011;5938;47.098;15.474;2023-05-23T16:56:42;12.27;;;11.27;;
11761;SDS011;5938;47.098;15.474;2023-05-23T17:00:47;12.63;;;11.43;;
11761;SDS011;5938;47.098;15.474;2023-05-23T17:04:52;11.40;;;10.30;;
11761;SDS011;5938;47.098;15.474;2023-05-23T17:08:57;13.57;;;11.93;;
11761;SDS011;5938;47.098;15.474;2023-05-23T17:13:00;12.63;;;11.53;;
11761;SDS011;5938;47.098;15.474;2023-05-23T17:17:05;11.03;;;10.03;;
11761;SDS011;5938;47.098;15.474;2023-05-23T17:21:09;12.17;;;11.07;;
11761;SDS011;5938;47.098;15.474;2023-05-23T17:25:15;11.80;;;10.70;;
11761;SDS011;5938;47.098;15.474;2023-05-23T17:29:19;12.30;;;11.20;;
11761;SDS011;5938;47.098;15.474;2023-05-23T17:33:24;12.37;;;11.17;;
11761;SDS011;5938;47.098;15.474;2023-05-23T17:37:28;12.53;;;11.30;;
11761;SDS011;5938;47.098;15.474;2023-05-23T17:41:36;13.57;;;12.07;;
11761;SDS011;5938;47.098;15.474;2023-05-23T17:45:40;14.80;;;13.30;;
11761;SDS011;5938;47.098;15.474;2023-05-23T17:49:46;13.10;;;11.73;;
11761;SDS011;5938;47.098;15.474;2023-05-23T17:53:50;17.90;;;13.73;;
11761;SDS011;5938;47.098;15.474;2023-05-23T17:57:56;15.00;;;13.03;;
11761;SDS011;5938;47.098;15.474;2023-05-23T18:02:00;15.23;;;13.17;;
11761;SDS011;5938;47.098;15.474;2023-05-23T18:06:07;16.17;;;14.17;;
11761;SDS011;5938;47.098;15.474;2023-05-23T18:10:14;15.67;;;14.00;;
11761;SDS011;5938;47.098;15.474;2023-05-23T18:14:18;16.73;;;13.47;;
11761;SDS011;5938;47.098;15.474;2023-05-23T18:18:23;18.13;;;16.27;;
11761;SDS011;5938;47.098;15.474;2023-05-23T18:22:34;17.80;;;15.83;;
11761;SDS011;5938;47.098;15.474;2023-05-23T18:26:40;17.37;;;15.40;;
11761;SDS011;5938;47.098;15.474;2023-05-23T18:30:50;28.03;;;14.70;;
11761;SDS011;5938;47.098;15.474;2023-05-23T18:34:57;17.40;;;14.90;;
11761;SDS011;5938;47.098;15.474;2023-05-23T18:39:09;18.40;;;16.33;;
11761;SDS011;5938;47.098;15.474;2023-05-23T18:43:25;17.83;;;15.97;;
11761;SDS011;5938;47.098;15.474;2023-05-23T18:47:35;18.43;;;16.50;;
11761;SDS011;5938;47.098;15.474;2023-05-23T18:51:41;18.77;;;16.07;;
11761;SDS011;5938;47.098;15.474;2023-05-23T18:55:48;19.77;;;17.20;;
11761;SDS011;5938;47.098;15.474;2023-05-23T18:59:54;21.50;;;18.43;;
11761;SDS011;5938;47.098;15.474;2023-05-23T19:04:00;22.90;;;18.37;;
11761;SDS011;5938;47.098;15.474;2023-05-23T19:08:09;21.50;;;18.10;;
11761;SDS011;5938;47.098;15.474;2023-05-23T19:12:26;27.50;;;18.77;;
11761;SDS011;5938;47.098;15.474;2023-05-23T19:16:31;21.70;;;15.83;;
11761;SDS011;5938;47.098;15.474;2023-05-23T19:20:41;18.73;;;16.43;;
11761;SDS011;5938;47.098;15.474;2023-05-23T19:24:54;15.07;;;13.47;;
11761;SDS011;5938;47.098;15.474;2023-05-23T19:29:04;17.87;;;16.00;;
11761;SDS011;5938;47.098;15.474;2023-05-23T19:33:13;16.33;;;14.60;;
11761;SDS011;5938;47.098;15.474;2023-05-23T19:37:19;15.93;;;13.77;;
11761;SDS011;5938;47.098;15.474;2023-05-23T19:41:24;15.33;;;13.83;;
11761;SDS011;5938;47.098;15.474;2023-05-23T19:45:35;19.03;;;14.43;;
11761;SDS011;5938;47.098;15.474;2023-05-23T19:49:41;15.17;;;12.67;;
11761;SDS011;5938;47.098;15.474;2023-05-23T19:53:52;14.97;;;12.10;;
11761;SDS011;5938;47.098;15.474;2023-05-23T19:58:02;13.70;;;12.30;;
11761;SDS011;5938;47.098;15.474;2023-05-23T20:02:10;13.83;;;12.17;;
11761;SDS011;5938;47.098;15.474;2023-05-23T20:06:16;13.20;;;11.80;;
11761;SDS011;5938;47.098;15.474;2023-05-23T20:10:22;12.47;;;11.30;;
11761;SDS011;5938;47.098;15.474;2023-05-23T20:14:28;9.37;;;8.37;;
11761;SDS011;5938;47.098;15.474;2023-05-23T20:18:35;12.90;;;11.47;;
11761;SDS011;5938;47.098;15.474;2023-05-23T20:22:42;13.47;;;11.73;;
11761;SDS011;5938;47.098;15.474;2023-05-23T20:26:46;13.20;;;11.20;;
11761;SDS011;5938;47.098;15.474;2023-05-23T20:30:50;13.30;;;11.90;;
11761;SDS011;5938;47.098;15.474;2023-05-23T20:34:56;13.03;;;10.70;;
11761;SDS011;5938;47.098;15.474;2023-05-23T20:39:00;15.80;;;10.90;;
11761;SDS011;5938;47.098;15.474;2023-05-23T20:43:05;14.53;;;12.03;;
11761;SDS011;5938;47.098;15.474;2023-05-23T20:47:10;11.83;;;10.60;;
11761;SDS011;5938;47.098;15.474;2023-05-23T20:51:15;13.30;;;11.03;;
11761;SDS011;5938;47.098;15.474;2023-05-23T20:55:19;12.83;;;10.87;;
11761;SDS011;5938;47.098;15.474;2023-05-23T20:59:25;13.60;;;11.90;;
11761;SDS011;5938;47.098;15.474;2023-05-23T21:03:32;15.50;;;12.13;;
11761;SDS011;5938;47.098;15.474;2023-05-23T21:07:37;14.93;;;11.20;;
11761;SDS011;5938;47.098;15.474;2023-05-23T21:11:41;15.80;;;11.50;;
11761;SDS011;5938;47.098;15.474;2023-05-23T21:15:45;13.57;;;11.93;;
11761;SDS011;5938;47.098;15.474;2023-05-23T21:19:48;13.13;;;10.63;;
11761;SDS011;5938;47.098;15.474;2023-05-23T21:23:54;13.60;;;10.80;;
11761;SDS011;5938;47.098;15.474;2023-05-23T21:27:57;12.00;;;10.73;;
11761;SDS011;5938;47.098;15.474;2023-05-23T21:32:01;16.20;;;11.90;;
11761;SDS011;5938;47.098;15.474;2023-05-23T21:36:05;13.83;;;10.00;;
11761;SDS011;5938;47.098;15.474;2023-05-23T21:40:11;12.30;;;11.03;;
11761;SDS011;5938;47.098;15.474;2023-05-23T21:44:14;17.07;;;12.40;;
11761;SDS011;5938;47.098;15.474;2023-05-23T21:48:19;12.70;;;10.60;;
11761;SDS011;5938;47.098;15.474;2023-05-23T21:52:22;14.60;;;10.97;;
11761;SDS011;5938;47.098;15.474;2023-05-23T21:56:27;11.93;;;10.73;;
11761;SDS011;5938;47.098;15.474;2023-05-23T22:00:30;13.70;;;10.77;;
11761;SDS011;5938;47.098;15.474;2023-05-23T22:04:33;13.20;;;11.20;;
11761;SDS011;5938;47.098;15.474;2023-05-23T22:08:37;13.90;;;11.73;;
11761;SDS011;5938;47.098;15.474;2023-05-23T22:12:41;14.77;;;11.67;;
11761;SDS011;5938;47.098;15.474;2023-05-23T22:16:45;13.53;;;11.30;;
11761;SDS011;5938;47.098;15.474;2023-05-23T22:20:50;11.27;;;10.13;;
11761;SDS011;5938;47.098;15.474;2023-05-23T22:24:56;13.00;;;10.47;;
11761;SDS011;5938;47.098;15.474;2023-05-23T22:29:00;13.13;;;11.90;;
11761;SDS011;5938;47.098;15.474;2023-05-23T22:33:04;13.60;;;12.20;;
11761;SDS011;5938;47.098;15.474;2023-05-23T22:37:13;14.47;;;11.83;;
11761;SDS011;5938;47.098;15.474;2023-05-23T22:41:17;14.87;;;11.37;;
11761;SDS011;5938;47.098;15.474;2023-05-23T22:45:22;16.67;;;13.20;;
11761;SDS011;5938;47.098;15.474;2023-05-23T22:49:25;13.83;;;11.43;;
11761;SDS011;5938;47.098;15.474;2023-05-23T22:53:30;12.60;;;11.17;;
11761;SDS011;5938;47.098;15.474;2023-05-23T22:57:33;16.83;;;14.20;;
11761;SDS011;5938;47.098;15.474;2023-05-23T23:01:38;16.20;;;12.40;;
11761;SDS011;5938;47.098;15.474;2023-05-23T23:05:42;14.80;;;12.10;;
11761;SDS011;5938;47.098;15.474;2023-05-23T23:09:45;12.20;;;10.90;;
11761;SDS011;5938;47.098;15.474;2023-05-23T23:13:50;13.07;;;11.50;;
11761;SDS011;5938;47.098;15.474;2023-05-23T23:17:54;14.37;;;12.50;;
11761;SDS011;5938;47.098;15.474;2023-05-23T23:21:57;13.60;;;11.93;;
11761;SDS011;5938;47.098;15.474;2023-05-23T23:26:01;11.70;;;10.60;;
11761;SDS011;5938;47.098;15.474;2023-05-23T23:30:05;17.40;;;11.33;;
11761;SDS011;5938;47.098;15.474;2023-05-23T23:34:10;14.47;;;12.40;;
11761;SDS011;5938;47.098;15.474;2023-05-23T23:38:14;19.30;;;12.30;;
11761;SDS011;5938;47.098;15.474;2023-05-23T23:42:17;16.40;;;11.97;;
11761;SDS011;5938;47.098;15.474;2023-05-23T23:46:21;13.40;;;11.67;;
11761;SDS011;5938;47.098;15.474;2023-05-23T23:50:26;11.70;;;10.50;;
11761;SDS011;5938;47.098;15.474;2023-05-23T23:54:29;15.20;;;12.40;;
11761;SDS011;5938;47.098;15.474;2023-05-23T23:58:38;15.73;;;12.20;;
